createdAt,value
2018-12-30T00:00:22.417Z,0.00
2018-12-30T00:01:22.453Z,0.00
2018-12-30T00:02:22.388Z,0.00
2018-12-30T00:03:22.410Z,0.00
2018-12-30T00:04:22.372Z,0.00
2018-12-30T00:05:22.365Z,0.00
2018-12-30T00:06:22.359Z,0.00
2018-12-30T00:07:22.340Z,0.00
2018-12-30T00:08:22.349Z,0.00
2018-12-30T00:09:22.325Z,0.00
2018-12-30T00:10:22.331Z,0.00
2018-12-30T00:11:22.299Z,0.00
2018-12-30T00:12:22.277Z,0.00
2018-12-30T00:13:22.287Z,0.00
2018-12-30T00:14:22.264Z,0.00
2018-12-30T00:15:22.266Z,0.00
2018-12-30T00:16:22.259Z,0.00
2018-12-30T00:17:22.237Z,0.00
2018-12-30T00:18:22.253Z,0.00
2018-12-30T00:19:22.215Z,0.00
2018-12-30T00:20:22.217Z,0.00
2018-12-30T00:21:22.189Z,0.00
2018-12-30T00:22:22.188Z,0.00
2018-12-30T00:23:22.186Z,0.00
2018-12-30T00:24:22.150Z,0.00
2018-12-30T00:25:22.149Z,0.00
2018-12-30T00:26:22.128Z,0.00
2018-12-30T00:27:22.154Z,0.00
2018-12-30T00:28:22.135Z,0.00
2018-12-30T00:29:22.117Z,0.00
2018-12-30T00:30:22.092Z,0.00
2018-12-30T00:31:22.073Z,0.00
2018-12-30T00:32:22.063Z,0.00
2018-12-30T00:33:22.083Z,0.00
2018-12-30T00:34:22.045Z,0.00
2018-12-30T00:35:22.030Z,0.00
2018-12-30T00:36:22.022Z,0.00
2018-12-30T00:37:22.006Z,0.00
2018-12-30T00:38:22.030Z,0.00
2018-12-30T00:39:21.995Z,0.00
2018-12-30T00:40:21.985Z,0.00
2018-12-30T00:41:21.972Z,0.00
2018-12-30T00:42:21.974Z,0.00
2018-12-30T00:43:21.939Z,0.00
2018-12-30T00:44:21.954Z,0.00
2018-12-30T00:45:21.922Z,0.00
2018-12-30T00:46:21.916Z,0.00
2018-12-30T00:47:21.905Z,0.00
2018-12-30T00:48:21.910Z,0.00
2018-12-30T00:49:21.900Z,0.00
2018-12-30T00:50:21.859Z,0.00
2018-12-30T00:51:21.864Z,0.00
2018-12-30T00:52:21.853Z,0.00
2018-12-30T00:53:21.845Z,0.00
2018-12-30T00:54:21.853Z,0.00
2018-12-30T00:55:21.816Z,0.00
2018-12-30T00:56:21.807Z,0.00
2018-12-30T00:57:21.788Z,0.00
2018-12-30T00:58:21.780Z,0.00
2018-12-30T00:59:21.805Z,0.00
2018-12-30T01:00:21.765Z,0.00
2018-12-30T01:01:21.756Z,0.00
2018-12-30T01:02:21.741Z,0.00
2018-12-30T01:03:21.753Z,0.00
2018-12-30T01:04:21.716Z,0.00
2018-12-30T01:05:21.743Z,0.00
2018-12-30T01:06:21.706Z,0.00
2018-12-30T01:07:21.690Z,0.00
2018-12-30T01:08:21.670Z,0.00
2018-12-30T01:09:21.692Z,0.00
2018-12-30T01:10:21.651Z,0.00
2018-12-30T01:11:21.648Z,0.00
2018-12-30T01:12:21.630Z,0.00
2018-12-30T01:13:21.624Z,0.00
2018-12-30T01:14:21.611Z,0.00
2018-12-30T01:15:21.619Z,0.00
2018-12-30T01:16:21.578Z,0.00
2018-12-30T01:17:21.576Z,0.00
2018-12-30T01:18:21.560Z,0.00
2018-12-30T01:19:21.564Z,0.00
2018-12-30T01:20:21.559Z,0.00
2018-12-30T01:21:25.113Z,0.00
2018-12-30T01:22:21.513Z,0.00
2018-12-30T01:23:21.520Z,0.00
2018-12-30T01:24:21.503Z,0.00
2018-12-30T01:25:21.522Z,0.00
2018-12-30T01:26:21.479Z,0.00
2018-12-30T01:27:21.461Z,0.00
2018-12-30T01:28:21.454Z,0.00
2018-12-30T01:29:21.533Z,0.00
2018-12-30T01:30:21.436Z,0.00
2018-12-30T01:31:21.449Z,0.00
2018-12-30T01:32:21.425Z,0.00
2018-12-30T01:33:21.412Z,0.00
2018-12-30T01:34:21.396Z,0.00
2018-12-30T01:35:21.381Z,0.00
2018-12-30T01:36:21.396Z,0.00
2018-12-30T01:37:21.370Z,0.00
2018-12-30T01:38:21.352Z,0.00
2018-12-30T01:39:21.335Z,0.00
2018-12-30T01:40:21.341Z,0.00
2018-12-30T01:41:21.309Z,0.00
2018-12-30T01:42:21.324Z,0.00
2018-12-30T01:43:21.318Z,0.00
2018-12-30T01:44:21.288Z,0.00
2018-12-30T01:45:21.311Z,0.00
2018-12-30T01:46:21.264Z,0.00
2018-12-30T01:47:21.239Z,0.00
2018-12-30T01:48:21.246Z,0.00
2018-12-30T01:49:21.223Z,0.00
2018-12-30T01:50:21.208Z,0.00
2018-12-30T01:51:21.224Z,0.00
2018-12-30T01:52:21.195Z,0.00
2018-12-30T01:53:21.171Z,0.00
2018-12-30T01:54:21.164Z,0.00
2018-12-30T01:55:21.160Z,0.00
2018-12-30T01:56:21.167Z,0.00
2018-12-30T01:57:21.139Z,0.00
2018-12-30T01:58:21.171Z,0.00
2018-12-30T01:59:21.111Z,0.00
2018-12-30T02:00:21.110Z,0.00
2018-12-30T02:01:21.122Z,0.00
2018-12-30T02:02:22.037Z,0.00
2018-12-30T02:03:21.112Z,0.00
2018-12-30T02:04:21.068Z,0.00
2018-12-30T02:05:21.075Z,0.00
2018-12-30T02:06:21.042Z,0.00
2018-12-30T02:07:21.033Z,0.00
2018-12-30T02:08:21.019Z,0.00
2018-12-30T02:09:21.368Z,0.00
2018-12-30T02:10:20.999Z,0.00
2018-12-30T02:11:20.972Z,0.00
2018-12-30T02:12:20.983Z,0.00
2018-12-30T02:13:20.955Z,0.00
2018-12-30T02:14:20.963Z,0.00
2018-12-30T02:15:20.947Z,0.00
2018-12-30T02:16:20.929Z,0.00
2018-12-30T02:17:20.917Z,0.00
2018-12-30T02:18:20.919Z,0.00
2018-12-30T02:19:20.921Z,0.00
2018-12-30T02:20:20.881Z,0.00
2018-12-30T02:21:20.865Z,0.00
2018-12-30T02:22:20.865Z,0.00
2018-12-30T02:23:20.857Z,0.00
2018-12-30T02:24:20.850Z,0.00
2018-12-30T02:25:20.841Z,0.00
2018-12-30T02:26:20.843Z,0.00
2018-12-30T02:27:20.812Z,0.00
2018-12-30T02:28:20.802Z,0.00
2018-12-30T02:29:20.841Z,0.00
2018-12-30T02:30:20.783Z,0.00
2018-12-30T02:31:20.765Z,0.00
2018-12-30T02:32:20.748Z,0.00
2018-12-30T02:33:20.772Z,0.00
2018-12-30T02:34:21.071Z,0.00
2018-12-30T02:35:20.740Z,0.00
2018-12-30T02:36:20.713Z,0.00
2018-12-30T02:37:20.720Z,0.00
2018-12-30T02:38:20.699Z,0.00
2018-12-30T02:39:20.724Z,0.00
2018-12-30T02:40:20.687Z,0.00
2018-12-30T02:41:20.661Z,0.00
2018-12-30T02:42:20.646Z,0.00
2018-12-30T02:43:20.633Z,0.00
2018-12-30T02:44:20.635Z,0.00
2018-12-30T02:45:20.599Z,0.00
2018-12-30T02:46:20.667Z,0.00
2018-12-30T02:47:20.592Z,0.00
2018-12-30T02:48:20.587Z,0.00
2018-12-30T02:49:20.574Z,0.00
2018-12-30T02:50:20.580Z,0.00
2018-12-30T02:51:20.545Z,0.00
2018-12-30T02:52:20.533Z,0.00
2018-12-30T02:53:20.536Z,0.00
2018-12-30T02:54:20.514Z,0.00
2018-12-30T02:55:20.523Z,0.00
2018-12-30T02:56:20.495Z,0.00
2018-12-30T02:57:20.470Z,0.00
2018-12-30T02:58:20.473Z,0.00
2018-12-30T02:59:20.458Z,0.00
2018-12-30T03:00:20.465Z,0.00
2018-12-30T03:01:20.444Z,0.00
2018-12-30T03:02:20.428Z,0.00
2018-12-30T03:03:20.415Z,0.00
2018-12-30T03:04:20.404Z,0.00
2018-12-30T03:05:20.410Z,0.00
2018-12-30T03:06:20.390Z,0.00
2018-12-30T03:07:20.375Z,0.00
2018-12-30T03:08:20.360Z,0.00
2018-12-30T03:09:20.351Z,0.00
2018-12-30T03:10:20.367Z,0.00
2018-12-30T03:11:20.339Z,0.00
2018-12-30T03:12:20.360Z,0.00
2018-12-30T03:13:20.310Z,0.00
2018-12-30T03:14:20.311Z,0.00
2018-12-30T03:15:20.273Z,0.00
2018-12-30T03:16:20.291Z,0.00
2018-12-30T03:17:20.267Z,0.00
2018-12-30T03:18:20.243Z,0.00
2018-12-30T03:19:20.246Z,0.00
2018-12-30T03:20:20.228Z,0.00
2018-12-30T03:21:20.264Z,0.00
2018-12-30T03:22:20.210Z,0.00
2018-12-30T03:23:20.191Z,0.00
2018-12-30T03:24:20.175Z,0.00
2018-12-30T03:25:20.163Z,0.00
2018-12-30T03:26:20.153Z,0.00
2018-12-30T03:27:20.176Z,0.00
2018-12-30T03:28:20.143Z,0.00
2018-12-30T03:29:20.123Z,0.00
2018-12-30T03:30:20.164Z,0.00
2018-12-30T03:31:20.119Z,0.00
2018-12-30T03:32:20.136Z,0.00
2018-12-30T03:33:20.099Z,0.00
2018-12-30T03:34:20.081Z,0.00
2018-12-30T03:35:20.070Z,0.00
2018-12-30T03:36:20.055Z,0.00
2018-12-30T03:37:20.030Z,0.00
2018-12-30T03:38:20.077Z,0.00
2018-12-30T03:39:20.122Z,0.00
2018-12-30T03:40:20.012Z,0.00
2018-12-30T03:41:19.994Z,0.00
2018-12-30T03:42:20.387Z,0.00
2018-12-30T03:43:19.987Z,0.00
2018-12-30T03:44:19.953Z,0.00
2018-12-30T03:45:19.962Z,0.00
2018-12-30T03:46:19.943Z,0.00
2018-12-30T03:47:19.921Z,0.00
2018-12-30T03:48:19.930Z,0.00
2018-12-30T03:49:19.896Z,0.00
2018-12-30T03:50:19.886Z,0.00
2018-12-30T03:51:19.887Z,0.00
2018-12-30T03:52:19.885Z,0.00
2018-12-30T03:53:19.893Z,0.00
2018-12-30T03:54:19.857Z,0.00
2018-12-30T03:55:19.838Z,0.00
2018-12-30T03:56:19.825Z,0.00
2018-12-30T03:57:19.807Z,0.00
2018-12-30T03:58:19.798Z,0.00
2018-12-30T03:59:19.822Z,0.00
2018-12-30T04:00:19.785Z,0.00
2018-12-30T04:01:19.771Z,0.00
2018-12-30T04:02:19.759Z,0.00
2018-12-30T04:03:19.759Z,0.00
2018-12-30T04:04:19.779Z,0.00
2018-12-30T04:05:19.743Z,0.00
2018-12-30T04:06:19.719Z,0.00
2018-12-30T04:07:19.720Z,0.00
2018-12-30T04:08:19.689Z,0.00
2018-12-30T04:09:19.678Z,0.00
2018-12-30T04:10:19.706Z,0.00
2018-12-30T04:11:19.672Z,0.00
2018-12-30T04:12:19.656Z,0.00
2018-12-30T04:13:19.665Z,0.00
2018-12-30T04:14:19.636Z,0.00
2018-12-30T04:15:19.631Z,0.00
2018-12-30T04:16:19.615Z,0.00
2018-12-30T04:17:19.607Z,0.00
2018-12-30T04:18:19.589Z,0.00
2018-12-30T04:19:19.569Z,0.00
2018-12-30T04:20:19.580Z,0.00
2018-12-30T04:21:19.544Z,0.00
2018-12-30T04:22:19.542Z,0.00
2018-12-30T04:23:19.529Z,0.00
2018-12-30T04:24:19.529Z,0.00
2018-12-30T04:25:19.524Z,0.00
2018-12-30T04:26:19.502Z,0.00
2018-12-30T04:27:19.483Z,0.00
2018-12-30T04:28:19.472Z,0.00
2018-12-30T04:29:19.456Z,0.00
2018-12-30T04:30:19.489Z,0.00
2018-12-30T04:31:19.444Z,0.00
2018-12-30T04:32:19.440Z,0.00
2018-12-30T04:33:19.418Z,0.00
2018-12-30T04:34:19.409Z,0.00
2018-12-30T04:35:19.432Z,0.00
2018-12-30T04:36:19.401Z,0.00
2018-12-30T04:37:19.373Z,0.00
2018-12-30T04:38:19.379Z,0.00
2018-12-30T04:39:19.348Z,0.00
2018-12-30T04:40:19.328Z,0.00
2018-12-30T04:41:19.341Z,0.00
2018-12-30T04:42:19.314Z,0.00
2018-12-30T04:43:19.699Z,0.00
2018-12-30T04:44:19.295Z,0.00
2018-12-30T04:45:19.287Z,0.00
2018-12-30T04:46:19.284Z,0.00
2018-12-30T04:47:19.259Z,0.00
2018-12-30T04:48:19.268Z,0.00
2018-12-30T04:49:19.253Z,0.00
2018-12-30T04:50:19.248Z,0.00
2018-12-30T04:51:19.228Z,0.00
2018-12-30T04:52:25.625Z,0.00
2018-12-30T04:53:20.217Z,0.00
2018-12-30T04:54:19.185Z,0.00
2018-12-30T04:55:19.185Z,0.00
2018-12-30T04:56:19.167Z,0.00
2018-12-30T04:57:19.163Z,0.00
2018-12-30T04:58:19.171Z,0.00
2018-12-30T04:59:19.125Z,0.00
2018-12-30T05:00:19.120Z,0.00
2018-12-30T05:01:19.119Z,0.00
2018-12-30T05:02:19.093Z,0.00
2018-12-30T05:03:19.120Z,0.00
2018-12-30T05:04:19.074Z,0.00
2018-12-30T05:05:19.063Z,0.00
2018-12-30T05:06:19.055Z,0.00
2018-12-30T05:07:19.057Z,0.00
2018-12-30T05:08:19.035Z,0.00
2018-12-30T05:09:19.044Z,0.00
2018-12-30T05:10:19.022Z,0.00
2018-12-30T05:11:18.995Z,0.00
2018-12-30T05:12:18.986Z,0.00
2018-12-30T05:13:18.981Z,0.00
2018-12-30T05:14:18.988Z,0.00
2018-12-30T05:15:18.956Z,0.00
2018-12-30T05:16:18.950Z,0.00
2018-12-30T05:17:18.941Z,0.00
2018-12-30T05:18:18.929Z,0.00
2018-12-30T05:19:18.924Z,0.00
2018-12-30T05:20:18.895Z,0.00
2018-12-30T05:21:18.907Z,0.00
2018-12-30T05:22:18.877Z,0.00
2018-12-30T05:23:18.868Z,0.00
2018-12-30T05:24:18.882Z,0.00
2018-12-30T05:25:18.840Z,0.00
2018-12-30T05:26:18.830Z,0.00
2018-12-30T05:27:18.830Z,0.00
2018-12-30T05:28:18.819Z,0.00
2018-12-30T05:29:18.799Z,0.00
2018-12-30T05:30:18.818Z,0.00
2018-12-30T05:31:18.780Z,0.00
2018-12-30T05:32:18.769Z,0.00
2018-12-30T05:33:18.758Z,0.00
2018-12-30T05:34:18.744Z,0.00
2018-12-30T05:35:19.515Z,0.00
2018-12-30T05:36:18.728Z,0.00
2018-12-30T05:37:18.711Z,0.00
2018-12-30T05:38:18.695Z,0.00
2018-12-30T05:39:18.700Z,0.00
2018-12-30T05:40:18.700Z,0.00
2018-12-30T05:41:18.698Z,0.00
2018-12-30T05:42:18.669Z,0.00
2018-12-30T05:43:18.648Z,0.00
2018-12-30T05:44:18.643Z,0.00
2018-12-30T05:45:18.624Z,0.00
2018-12-30T05:46:18.628Z,0.00
2018-12-30T05:47:18.607Z,0.00
2018-12-30T05:48:18.595Z,0.00
2018-12-30T05:49:18.583Z,0.00
2018-12-30T05:50:18.569Z,0.00
2018-12-30T05:51:18.593Z,0.00
2018-12-30T05:52:18.538Z,0.00
2018-12-30T05:53:18.544Z,0.00
2018-12-30T05:54:18.542Z,0.00
2018-12-30T05:55:18.511Z,0.00
2018-12-30T05:56:18.513Z,0.00
2018-12-30T05:57:18.488Z,0.00
2018-12-30T05:58:18.474Z,0.00
2018-12-30T05:59:18.474Z,0.00
2018-12-30T06:00:18.463Z,0.00
2018-12-30T06:01:18.468Z,0.00
2018-12-30T06:02:18.435Z,0.00
2018-12-30T06:03:18.442Z,0.00
2018-12-30T06:04:18.407Z,0.00
2018-12-30T06:05:18.404Z,0.00
2018-12-30T06:06:18.390Z,0.00
2018-12-30T06:07:18.478Z,0.00
2018-12-30T06:08:18.398Z,0.00
2018-12-30T06:09:18.350Z,0.00
2018-12-30T06:10:18.348Z,0.00
2018-12-30T06:11:18.347Z,0.00
2018-12-30T06:12:18.334Z,0.00
2018-12-30T06:13:18.334Z,0.00
2018-12-30T06:14:18.304Z,0.00
2018-12-30T06:15:18.281Z,0.00
2018-12-30T06:16:18.289Z,0.00
2018-12-30T06:17:18.259Z,0.00
2018-12-30T06:18:18.274Z,0.00
2018-12-30T06:19:18.289Z,0.00
2018-12-30T06:20:18.235Z,0.00
2018-12-30T06:21:18.226Z,0.00
2018-12-30T06:22:18.216Z,0.00
2018-12-30T06:23:18.198Z,0.00
2018-12-30T06:24:18.210Z,0.00
2018-12-30T06:25:18.179Z,0.00
2018-12-30T06:26:18.176Z,0.00
2018-12-30T06:27:18.150Z,0.00
2018-12-30T06:28:18.149Z,0.00
2018-12-30T06:29:18.142Z,0.00
2018-12-30T06:30:18.149Z,0.00
2018-12-30T06:31:18.139Z,0.00
2018-12-30T06:32:18.115Z,0.00
2018-12-30T06:33:18.098Z,0.00
2018-12-30T06:34:18.095Z,0.00
2018-12-30T06:35:18.098Z,0.00
2018-12-30T06:36:18.081Z,0.00
2018-12-30T06:37:18.047Z,0.00
2018-12-30T06:38:18.033Z,0.00
2018-12-30T06:39:18.022Z,0.00
2018-12-30T06:40:18.017Z,0.00
2018-12-30T06:41:18.040Z,0.00
2018-12-30T06:42:18.009Z,0.00
2018-12-30T06:43:17.986Z,0.00
2018-12-30T06:44:17.974Z,0.00
2018-12-30T06:45:17.967Z,0.00
2018-12-30T06:46:17.979Z,0.00
2018-12-30T06:47:17.936Z,0.00
2018-12-30T06:48:17.929Z,4.00
2018-12-30T06:49:17.918Z,0.00
2018-12-30T06:50:17.905Z,4.00
2018-12-30T06:51:17.905Z,4.00
2018-12-30T06:52:17.918Z,4.00
2018-12-30T06:53:17.879Z,4.00
2018-12-30T06:54:17.876Z,4.00
2018-12-30T06:55:17.845Z,4.00
2018-12-30T06:56:17.840Z,8.00
2018-12-30T06:57:17.848Z,12.00
2018-12-30T06:58:17.821Z,12.00
2018-12-30T06:59:17.805Z,8.00
2018-12-30T07:00:17.796Z,12.00
2018-12-30T07:01:17.784Z,12.00
2018-12-30T07:02:17.797Z,16.00
2018-12-30T07:03:17.785Z,20.00
2018-12-30T07:04:17.761Z,20.00
2018-12-30T07:05:17.748Z,20.00
2018-12-30T07:06:17.733Z,32.00
2018-12-30T07:07:17.711Z,32.00
2018-12-30T07:08:17.718Z,36.00
2018-12-30T07:09:17.687Z,44.00
2018-12-30T07:10:17.682Z,44.00
2018-12-30T07:11:17.681Z,44.00
2018-12-30T07:12:17.697Z,52.00
2018-12-30T07:13:17.657Z,56.00
2018-12-30T07:14:17.644Z,64.00
2018-12-30T07:15:17.637Z,76.00
2018-12-30T07:16:17.628Z,72.00
2018-12-30T07:17:17.645Z,72.00
2018-12-30T07:18:17.656Z,84.00
2018-12-30T07:19:17.583Z,92.00
2018-12-30T07:20:17.573Z,108.00
2018-12-30T07:21:17.559Z,120.00
2018-12-30T07:22:17.570Z,120.00
2018-12-30T07:23:17.546Z,140.00
2018-12-30T07:24:17.536Z,148.00
2018-12-30T07:25:17.529Z,156.00
2018-12-30T07:26:17.522Z,168.00
2018-12-30T07:27:18.441Z,192.00
2018-12-30T07:28:17.481Z,192.00
2018-12-30T07:29:17.485Z,196.00
2018-12-30T07:30:17.478Z,188.00
2018-12-30T07:31:17.454Z,188.00
2018-12-30T07:32:17.463Z,184.00
2018-12-30T07:33:17.462Z,184.00
2018-12-30T07:34:17.423Z,180.00
2018-12-30T07:35:17.424Z,172.00
2018-12-30T07:36:17.413Z,168.00
2018-12-30T07:37:17.399Z,168.00
2018-12-30T07:38:17.407Z,176.00
2018-12-30T07:39:17.372Z,176.00
2018-12-30T07:40:17.355Z,188.00
2018-12-30T07:41:17.354Z,192.00
2018-12-30T07:42:17.359Z,196.00
2018-12-30T07:43:17.329Z,220.00
2018-12-30T07:44:17.343Z,280.00
2018-12-30T07:45:17.406Z,344.00
2018-12-30T07:46:17.297Z,376.00
2018-12-30T07:47:17.587Z,348.00
2018-12-30T07:48:17.283Z,260.00
2018-12-30T07:49:17.280Z,244.00
2018-12-30T07:50:17.260Z,220.00
2018-12-30T07:51:17.239Z,240.00
2018-12-30T07:52:17.243Z,260.00
2018-12-30T07:53:17.217Z,308.00
2018-12-30T07:54:17.227Z,276.00
2018-12-30T07:55:17.210Z,272.00
2018-12-30T07:56:17.191Z,288.00
2018-12-30T07:57:17.185Z,300.00
2018-12-30T07:58:17.205Z,332.00
2018-12-30T07:59:17.151Z,368.00
2018-12-30T08:00:17.146Z,356.00
2018-12-30T08:01:17.143Z,360.00
2018-12-30T08:02:17.125Z,372.00
2018-12-30T08:03:17.103Z,404.00
2018-12-30T08:04:17.106Z,460.00
2018-12-30T08:05:17.086Z,524.00
2018-12-30T08:06:17.076Z,652.00
2018-12-30T08:07:17.081Z,596.00
2018-12-30T08:08:17.060Z,512.00
2018-12-30T08:09:17.081Z,580.00
2018-12-30T08:10:17.040Z,656.00
2018-12-30T08:11:17.020Z,692.00
2018-12-30T08:12:17.006Z,692.00
2018-12-30T08:13:16.993Z,452.00
2018-12-30T08:14:17.000Z,628.00
2018-12-30T08:15:17.000Z,672.00
2018-12-30T08:16:16.969Z,652.00
2018-12-30T08:17:16.951Z,492.00
2018-12-30T08:18:16.941Z,440.00
2018-12-30T08:19:16.935Z,512.00
2018-12-30T08:20:16.947Z,560.00
2018-12-30T08:21:16.921Z,660.00
2018-12-30T08:22:16.914Z,608.00
2018-12-30T08:23:21.393Z,496.00
2018-12-30T08:24:17.883Z,496.00
2018-12-30T08:25:16.891Z,640.00
2018-12-30T08:26:16.858Z,620.00
2018-12-30T08:27:16.891Z,712.00
2018-12-30T08:28:24.806Z,760.00
2018-12-30T08:29:17.834Z,740.00
2018-12-30T08:30:16.851Z,960.00
2018-12-30T08:31:16.802Z,984.00
2018-12-30T08:32:16.796Z,1240.00
2018-12-30T08:33:16.790Z,1236.00
2018-12-30T08:34:16.776Z,1140.00
2018-12-30T08:35:16.760Z,728.00
2018-12-30T08:36:16.769Z,1328.00
2018-12-30T08:37:16.739Z,1132.00
2018-12-30T08:38:16.723Z,960.00
2018-12-30T08:39:16.734Z,1128.00
2018-12-30T08:40:16.733Z,1184.00
2018-12-30T08:41:16.699Z,1204.00
2018-12-30T08:42:16.686Z,1156.00
2018-12-30T08:43:17.350Z,936.00
2018-12-30T08:44:16.669Z,984.00
2018-12-30T08:45:16.685Z,1060.00
2018-12-30T08:46:16.652Z,1036.00
2018-12-30T08:47:16.626Z,1112.00
2018-12-30T08:48:16.619Z,1444.00
2018-12-30T08:49:16.616Z,1360.00
2018-12-30T08:50:16.642Z,1300.00
2018-12-30T08:51:16.575Z,1508.00
2018-12-30T08:52:16.570Z,1380.00
2018-12-30T08:53:16.561Z,1884.00
2018-12-30T08:54:16.547Z,1924.00
2018-12-30T08:55:16.555Z,1428.00
2018-12-30T08:56:16.552Z,1156.00
2018-12-30T08:57:16.530Z,1484.00
2018-12-30T08:58:16.530Z,1208.00
2018-12-30T08:59:16.502Z,1728.00
2018-12-30T09:00:16.482Z,1812.00
2018-12-30T09:01:16.495Z,1860.00
2018-12-30T09:02:16.462Z,2136.00
2018-12-30T09:03:16.464Z,1692.00
2018-12-30T09:04:16.474Z,1700.00
2018-12-30T09:05:16.439Z,2256.00
2018-12-30T09:06:16.419Z,1648.00
2018-12-30T09:07:16.426Z,2352.00
2018-12-30T09:08:16.403Z,1896.00
2018-12-30T09:09:16.403Z,1496.00
2018-12-30T09:10:16.406Z,1392.00
2018-12-30T09:11:16.359Z,1408.00
2018-12-30T09:12:16.358Z,2112.00
2018-12-30T09:13:16.362Z,1668.00
2018-12-30T09:14:16.334Z,1788.00
2018-12-30T09:15:16.351Z,1792.00
2018-12-30T09:16:16.354Z,2120.00
2018-12-30T09:17:16.313Z,2204.00
2018-12-30T09:18:16.308Z,1916.00
2018-12-30T09:19:16.289Z,2160.00
2018-12-30T09:20:16.283Z,2380.00
2018-12-30T09:21:16.271Z,2048.00
2018-12-30T09:22:16.282Z,1800.00
2018-12-30T09:23:16.240Z,2172.00
2018-12-30T09:24:16.231Z,2304.00
2018-12-30T09:25:16.213Z,1744.00
2018-12-30T09:26:16.204Z,1760.00
2018-12-30T09:27:16.224Z,1896.00
2018-12-30T09:28:16.197Z,2820.00
2018-12-30T09:29:16.179Z,2932.00
2018-12-30T09:30:16.178Z,3232.00
2018-12-30T09:31:16.157Z,2156.00
2018-12-30T09:32:16.177Z,2604.00
2018-12-30T09:33:16.138Z,2104.00
2018-12-30T09:34:16.117Z,2696.00
2018-12-30T09:35:16.131Z,2548.00
2018-12-30T09:36:16.110Z,2272.00
2018-12-30T09:37:16.117Z,2420.00
2018-12-30T09:38:16.077Z,2144.00
2018-12-30T09:39:16.071Z,2660.00
2018-12-30T09:40:16.102Z,3216.00
2018-12-30T09:41:16.045Z,2732.00
2018-12-30T09:42:16.042Z,3552.00
2018-12-30T09:43:16.032Z,3128.00
2018-12-30T09:44:16.010Z,3356.00
2018-12-30T09:45:16.001Z,2400.00
2018-12-30T09:46:15.991Z,2392.00
2018-12-30T09:47:15.981Z,2732.00
2018-12-30T09:48:15.988Z,3012.00
2018-12-30T09:49:15.991Z,3016.00
2018-12-30T09:50:15.970Z,3824.00
2018-12-30T09:51:15.933Z,3872.00
2018-12-30T09:52:15.926Z,3548.00
2018-12-30T09:53:15.921Z,3940.00
2018-12-30T09:54:15.908Z,4396.00
2018-12-30T09:55:15.903Z,3528.00
2018-12-30T09:56:15.872Z,4144.00
2018-12-30T09:57:15.864Z,3928.00
2018-12-30T09:58:15.882Z,6456.00
2018-12-30T09:59:15.859Z,5004.00
2018-12-30T10:00:15.865Z,6328.00
2018-12-30T10:01:15.852Z,6576.00
2018-12-30T10:02:15.824Z,5584.00
2018-12-30T10:03:15.814Z,5712.00
2018-12-30T10:04:15.820Z,6268.00
2018-12-30T10:05:15.802Z,5028.00
2018-12-30T10:06:15.772Z,6816.00
2018-12-30T10:07:15.765Z,6616.00
2018-12-30T10:08:15.764Z,7052.00
2018-12-30T10:09:15.743Z,5536.00
2018-12-30T10:10:15.747Z,5648.00
2018-12-30T10:11:15.736Z,5264.00
2018-12-30T10:12:15.712Z,4620.00
2018-12-30T10:13:15.703Z,5060.00
2018-12-30T10:14:15.697Z,5040.00
2018-12-30T10:15:15.670Z,4548.00
2018-12-30T10:16:15.670Z,4428.00
2018-12-30T10:17:15.648Z,4404.00
2018-12-30T10:18:15.632Z,4276.00
2018-12-30T10:19:15.636Z,4572.00
2018-12-30T10:20:15.615Z,4904.00
2018-12-30T10:21:15.630Z,5148.00
2018-12-30T10:22:15.599Z,4752.00
2018-12-30T10:23:15.595Z,6240.00
2018-12-30T10:24:15.566Z,4732.00
2018-12-30T10:25:15.568Z,6704.00
2018-12-30T10:26:15.582Z,5872.00
2018-12-30T10:27:15.535Z,5852.00
2018-12-30T10:28:15.540Z,5204.00
2018-12-30T10:29:15.518Z,5700.00
2018-12-30T10:30:15.500Z,6796.00
2018-12-30T10:31:15.518Z,6048.00
2018-12-30T10:32:15.490Z,5348.00
2018-12-30T10:33:15.482Z,7180.00
2018-12-30T10:34:15.478Z,7128.00
2018-12-30T10:35:15.458Z,7152.00
2018-12-30T10:36:15.455Z,7572.00
2018-12-30T10:37:15.430Z,7304.00
2018-12-30T10:38:15.453Z,6912.00
2018-12-30T10:39:15.414Z,5896.00
2018-12-30T10:40:15.401Z,5972.00
2018-12-30T10:41:15.403Z,7664.00
2018-12-30T10:42:15.376Z,7880.00
2018-12-30T10:43:15.370Z,8204.00
2018-12-30T10:44:15.357Z,7884.00
2018-12-30T10:45:15.360Z,6376.00
2018-12-30T10:46:15.386Z,5632.00
2018-12-30T10:47:15.311Z,5648.00
2018-12-30T10:48:15.307Z,6136.00
2018-12-30T10:49:15.290Z,5660.00
2018-12-30T10:50:15.282Z,6188.00
2018-12-30T10:51:15.277Z,5672.00
2018-12-30T10:52:15.284Z,4404.00
2018-12-30T10:53:15.320Z,4476.00
2018-12-30T10:54:15.249Z,5000.00
2018-12-30T10:55:15.223Z,5872.00
2018-12-30T10:56:15.220Z,6040.00
2018-12-30T10:57:15.229Z,7344.00
2018-12-30T10:58:15.210Z,7012.00
2018-12-30T10:59:15.180Z,8432.00
2018-12-30T11:00:15.174Z,6768.00
2018-12-30T11:01:15.169Z,7996.00
2018-12-30T11:02:15.207Z,8468.00
2018-12-30T11:03:15.227Z,6696.00
2018-12-30T11:04:15.137Z,6256.00
2018-12-30T11:05:15.122Z,8360.00
2018-12-30T11:06:15.119Z,8212.00
2018-12-30T11:07:15.093Z,6520.00
2018-12-30T11:08:15.099Z,6764.00
2018-12-30T11:09:15.069Z,4908.00
2018-12-30T11:10:15.065Z,6616.00
2018-12-30T11:11:15.060Z,6120.00
2018-12-30T11:12:15.067Z,5552.00
2018-12-30T11:13:15.034Z,5372.00
2018-12-30T11:14:15.016Z,6408.00
2018-12-30T11:15:15.019Z,8152.00
2018-12-30T11:16:15.000Z,5440.00
2018-12-30T11:17:15.011Z,5624.00
2018-12-30T11:18:14.985Z,6024.00
2018-12-30T11:19:16.365Z,6332.00
2018-12-30T11:20:14.949Z,6140.00
2018-12-30T11:21:14.946Z,5896.00
2018-12-30T11:22:14.951Z,7108.00
2018-12-30T11:23:14.941Z,7164.00
2018-12-30T11:24:14.916Z,6116.00
2018-12-30T11:25:14.922Z,5456.00
2018-12-30T11:26:14.902Z,6560.00
2018-12-30T11:27:14.899Z,5820.00
2018-12-30T11:28:14.884Z,5532.00
2018-12-30T11:29:14.858Z,4820.00
2018-12-30T11:30:14.862Z,4896.00
2018-12-30T11:31:14.833Z,4436.00
2018-12-30T11:32:14.827Z,4144.00
2018-12-30T11:33:14.838Z,5220.00
2018-12-30T11:34:14.794Z,5168.00
2018-12-30T11:35:14.793Z,4916.00
2018-12-30T11:36:14.802Z,5108.00
2018-12-30T11:37:14.777Z,3968.00
2018-12-30T11:38:14.759Z,4236.00
2018-12-30T11:39:14.779Z,4672.00
2018-12-30T11:40:14.730Z,5436.00
2018-12-30T11:41:14.729Z,4496.00
2018-12-30T11:42:14.726Z,4044.00
2018-12-30T11:43:14.713Z,3728.00
2018-12-30T11:44:14.711Z,4460.00
2018-12-30T11:45:14.704Z,4312.00
2018-12-30T11:46:14.668Z,3304.00
2018-12-30T11:47:14.665Z,3268.00
2018-12-30T11:48:14.649Z,3680.00
2018-12-30T11:49:14.639Z,2796.00
2018-12-30T11:50:14.646Z,3032.00
2018-12-30T11:51:15.577Z,3496.00
2018-12-30T11:52:14.596Z,3296.00
2018-12-30T11:53:15.113Z,3300.00
2018-12-30T11:54:16.498Z,3192.00
2018-12-30T11:55:14.588Z,3880.00
2018-12-30T11:56:14.574Z,4132.00
2018-12-30T11:57:14.560Z,5376.00
2018-12-30T11:58:14.539Z,4528.00
2018-12-30T11:59:14.543Z,4000.00
2018-12-30T12:00:14.547Z,3748.00
2018-12-30T12:01:14.520Z,3628.00
2018-12-30T12:02:14.502Z,3972.00
2018-12-30T12:03:14.475Z,3780.00
2018-12-30T12:04:14.470Z,3380.00
2018-12-30T12:05:14.472Z,4428.00
2018-12-30T12:06:14.451Z,3992.00
2018-12-30T12:07:14.465Z,4356.00
2018-12-30T12:08:14.441Z,4912.00
2018-12-30T12:09:14.417Z,4044.00
2018-12-30T12:10:14.422Z,5100.00
2018-12-30T12:11:14.422Z,5792.00
2018-12-30T12:12:14.382Z,4776.00
2018-12-30T12:13:14.366Z,4776.00
2018-12-30T12:14:14.355Z,4048.00
2018-12-30T12:15:14.354Z,3496.00
2018-12-30T12:16:14.343Z,3064.00
2018-12-30T12:17:14.354Z,2868.00
2018-12-30T12:18:14.308Z,3400.00
2018-12-30T12:19:14.308Z,4040.00
2018-12-30T12:20:14.300Z,3492.00
2018-12-30T12:21:14.292Z,4112.00
2018-12-30T12:22:14.296Z,3328.00
2018-12-30T12:23:14.261Z,3308.00
2018-12-30T12:24:14.256Z,4084.00
2018-12-30T12:25:14.238Z,4956.00
2018-12-30T12:26:14.230Z,4472.00
2018-12-30T12:27:14.240Z,3148.00
2018-12-30T12:28:14.235Z,3236.00
2018-12-30T12:29:14.200Z,3080.00
2018-12-30T12:30:14.177Z,3504.00
2018-12-30T12:31:14.164Z,4256.00
2018-12-30T12:32:14.157Z,4668.00
2018-12-30T12:33:14.156Z,4528.00
2018-12-30T12:34:14.163Z,3752.00
2018-12-30T12:35:14.134Z,4604.00
2018-12-30T12:36:14.111Z,3880.00
2018-12-30T12:37:14.096Z,2668.00
2018-12-30T12:38:14.091Z,2588.00
2018-12-30T12:39:14.104Z,2692.00
2018-12-30T12:40:14.072Z,3044.00
2018-12-30T12:41:14.072Z,3580.00
2018-12-30T12:42:14.053Z,3292.00
2018-12-30T12:43:14.057Z,3252.00
2018-12-30T12:44:14.059Z,3640.00
2018-12-30T12:45:14.015Z,3560.00
2018-12-30T12:46:14.005Z,2440.00
2018-12-30T12:47:14.010Z,2588.00